sensor_id;sensor_type;location;lat;lon;timestamp;temperature;humidity
45619;DHT22;31343;47.520;19.144;2022-09-13T00:00:48;13.00;99.90
45619;DHT22;31343;47.520;19.144;2022-09-13T00:03:15;13.10;99.90
45619;DHT22;31343;47.520;19.144;2022-09-13T00:05:41;13.10;99.90
45619;DHT22;31343;47.520;19.144;2022-09-13T00:08:06;13.10;99.90
45619;DHT22;31343;47.520;19.144;2022-09-13T00:10:33;13.00;99.90
45619;DHT22;31343;47.520;19.144;2022-09-13T00:12:59;13.00;99.90
45619;DHT22;31343;47.520;19.144;2022-09-13T00:15:26;13.00;99.90
45619;DHT22;31343;47.520;19.144;2022-09-13T00:17:51;12.90;99.90
45619;DHT22;31343;47.520;19.144;2022-09-13T00:20:17;12.90;99.90
45619;DHT22;31343;47.520;19.144;2022-09-13T00:22:43;12.80;99.90
45619;DHT22;31343;47.520;19.144;2022-09-13T00:25:08;12.80;99.90
45619;DHT22;31343;47.520;19.144;2022-09-13T00:27:34;12.50;99.90
45619;DHT22;31343;47.520;19.144;2022-09-13T00:30:00;12.50;99.90
45619;DHT22;31343;47.520;19.144;2022-09-13T00:32:25;12.50;99.90
45619;DHT22;31343;47.520;19.144;2022-09-13T00:34:51;12.40;99.90
45619;DHT22;31343;47.520;19.144;2022-09-13T00:37:17;12.50;99.90
45619;DHT22;31343;47.520;19.144;2022-09-13T00:39:43;12.60;99.90
45619;DHT22;31343;47.520;19.144;2022-09-13T00:42:11;12.50;99.90
45619;DHT22;31343;47.520;19.144;2022-09-13T00:44:57;12.50;99.90
45619;DHT22;31343;47.520;19.144;2022-09-13T00:49:53;12.50;99.90
45619;DHT22;31343;47.520;19.144;2022-09-13T00:52:21;12.50;99.90
45619;DHT22;31343;47.520;19.144;2022-09-13T00:54:49;12.50;99.90
45619;DHT22;31343;47.520;19.144;2022-09-13T00:57:16;12.50;99.90
45619;DHT22;31343;47.520;19.144;2022-09-13T00:59:49;12.40;99.90
45619;DHT22;31343;47.520;19.144;2022-09-13T01:02:17;12.30;99.90
45619;DHT22;31343;47.520;19.144;2022-09-13T01:04:43;12.30;99.90
45619;DHT22;31343;47.520;19.144;2022-09-13T01:07:10;12.20;99.90
45619;DHT22;31343;47.520;19.144;2022-09-13T01:09:38;12.20;99.90
45619;DHT22;31343;47.520;19.144;2022-09-13T01:12:06;12.20;99.90
45619;DHT22;31343;47.520;19.144;2022-09-13T01:14:34;12.30;99.90
45619;DHT22;31343;47.520;19.144;2022-09-13T01:17:01;12.30;99.90
45619;DHT22;31343;47.520;19.144;2022-09-13T01:19:26;12.30;99.90
45619;DHT22;31343;47.520;19.144;2022-09-13T01:32:27;12.20;99.90
45619;DHT22;31343;47.520;19.144;2022-09-13T01:35:01;12.20;99.90
45619;DHT22;31343;47.520;19.144;2022-09-13T01:37:46;12.20;99.90
45619;DHT22;31343;47.520;19.144;2022-09-13T01:47:50;11.90;99.90
45619;DHT22;31343;47.520;19.144;2022-09-13T01:50:21;11.90;99.90
45619;DHT22;31343;47.520;19.144;2022-09-13T02:00:20;11.90;99.90
45619;DHT22;31343;47.520;19.144;2022-09-13T02:07:54;11.80;99.90
45619;DHT22;31343;47.520;19.144;2022-09-13T02:10:21;11.80;99.90
45619;DHT22;31343;47.520;19.144;2022-09-13T02:12:49;11.80;99.90
45619;DHT22;31343;47.520;19.144;2022-09-13T02:15:16;11.80;99.90
45619;DHT22;31343;47.520;19.144;2022-09-13T02:17:48;11.70;99.90
45619;DHT22;31343;47.520;19.144;2022-09-13T02:20:19;11.80;99.90
45619;DHT22;31343;47.520;19.144;2022-09-13T02:22:47;11.70;99.90
45619;DHT22;31343;47.520;19.144;2022-09-13T02:25:15;11.70;99.90
45619;DHT22;31343;47.520;19.144;2022-09-13T02:27:44;11.70;99.90
45619;DHT22;31343;47.520;19.144;2022-09-13T02:30:11;11.70;99.90
45619;DHT22;31343;47.520;19.144;2022-09-13T02:32:39;11.70;99.90
45619;DHT22;31343;47.520;19.144;2022-09-13T02:35:10;11.70;99.90
45619;DHT22;31343;47.520;19.144;2022-09-13T02:37:38;11.60;99.90
45619;DHT22;31343;47.520;19.144;2022-09-13T02:40:09;11.60;99.90
45619;DHT22;31343;47.520;19.144;2022-09-13T02:42:41;11.60;99.90
45619;DHT22;31343;47.520;19.144;2022-09-13T02:45:08;11.40;99.90
45619;DHT22;31343;47.520;19.144;2022-09-13T02:50:17;11.40;99.90
45619;DHT22;31343;47.520;19.144;2022-09-13T02:57:37;11.40;99.90
45619;DHT22;31343;47.520;19.144;2022-09-13T03:00:05;11.20;99.90
45619;DHT22;31343;47.520;19.144;2022-09-13T03:02:31;11.10;99.90
45619;DHT22;31343;47.520;19.144;2022-09-13T03:04:58;11.10;99.90
45619;DHT22;31343;47.520;19.144;2022-09-13T03:07:24;11.10;99.90
45619;DHT22;31343;47.520;19.144;2022-09-13T03:09:57;11.20;99.90
45619;DHT22;31343;47.520;19.144;2022-09-13T03:12:32;11.20;99.90
45619;DHT22;31343;47.520;19.144;2022-09-13T03:20:07;11.20;99.90
45619;DHT22;31343;47.520;19.144;2022-09-13T03:27:36;11.20;99.90
45619;DHT22;31343;47.520;19.144;2022-09-13T03:30:06;11.20;99.90
45619;DHT22;31343;47.520;19.144;2022-09-13T03:32:40;11.10;99.90
45619;DHT22;31343;47.520;19.144;2022-09-13T03:35:16;11.00;99.90
45619;DHT22;31343;47.520;19.144;2022-09-13T03:40:13;11.10;99.90
45619;DHT22;31343;47.520;19.144;2022-09-13T03:42:57;11.00;99.90
45619;DHT22;31343;47.520;19.144;2022-09-13T03:45:27;11.00;99.90
45619;DHT22;31343;47.520;19.144;2022-09-13T03:47:55;11.00;99.90
45619;DHT22;31343;47.520;19.144;2022-09-13T03:50:21;11.00;99.90
45619;DHT22;31343;47.520;19.144;2022-09-13T03:52:53;11.10;99.90
45619;DHT22;31343;47.520;19.144;2022-09-13T03:55:20;11.00;99.90
45619;DHT22;31343;47.520;19.144;2022-09-13T03:57:46;11.00;99.90
45619;DHT22;31343;47.520;19.144;2022-09-13T04:00:12;10.90;99.90
45619;DHT22;31343;47.520;19.144;2022-09-13T04:02:38;10.90;99.90
45619;DHT22;31343;47.520;19.144;2022-09-13T04:05:03;10.90;99.90
45619;DHT22;31343;47.520;19.144;2022-09-13T04:07:29;10.90;99.90
45619;DHT22;31343;47.520;19.144;2022-09-13T04:09:55;11.00;99.90
45619;DHT22;31343;47.520;19.144;2022-09-13T04:12:20;11.00;99.90
45619;DHT22;31343;47.520;19.144;2022-09-13T04:14:46;11.00;99.90
45619;DHT22;31343;47.520;19.144;2022-09-13T04:17:11;10.90;99.90
45619;DHT22;31343;47.520;19.144;2022-09-13T04:19:37;10.90;99.90
45619;DHT22;31343;47.520;19.144;2022-09-13T04:22:03;10.90;99.90
45619;DHT22;31343;47.520;19.144;2022-09-13T04:24:29;10.90;99.90
45619;DHT22;31343;47.520;19.144;2022-09-13T04:26:56;10.90;99.90
45619;DHT22;31343;47.520;19.144;2022-09-13T04:29:22;10.90;99.90
45619;DHT22;31343;47.520;19.144;2022-09-13T04:31:48;10.90;99.90
45619;DHT22;31343;47.520;19.144;2022-09-13T04:34:14;10.80;99.90
45619;DHT22;31343;47.520;19.144;2022-09-13T04:36:41;10.80;99.90
45619;DHT22;31343;47.520;19.144;2022-09-13T04:39:07;10.80;99.90
45619;DHT22;31343;47.520;19.144;2022-09-13T04:41:32;10.80;99.90
45619;DHT22;31343;47.520;19.144;2022-09-13T04:43:59;10.80;99.90
45619;DHT22;31343;47.520;19.144;2022-09-13T04:46:26;10.70;99.90
45619;DHT22;31343;47.520;19.144;2022-09-13T04:48:52;10.70;99.90
45619;DHT22;31343;47.520;19.144;2022-09-13T04:51:18;10.60;99.90
45619;DHT22;31343;47.520;19.144;2022-09-13T04:53:53;10.70;99.90
45619;DHT22;31343;47.520;19.144;2022-09-13T04:56:20;10.80;99.90
45619;DHT22;31343;47.520;19.144;2022-09-13T04:58:45;11.00;99.90
45619;DHT22;31343;47.520;19.144;2022-09-13T05:01:11;11.20;99.90
45619;DHT22;31343;47.520;19.144;2022-09-13T05:03:36;11.50;99.90
45619;DHT22;31343;47.520;19.144;2022-09-13T05:06:03;11.80;99.90
45619;DHT22;31343;47.520;19.144;2022-09-13T05:08:28;12.20;99.90
45619;DHT22;31343;47.520;19.144;2022-09-13T05:10:54;12.60;99.90
45619;DHT22;31343;47.520;19.144;2022-09-13T05:13:19;13.10;99.90
45619;DHT22;31343;47.520;19.144;2022-09-13T05:15:45;13.50;99.90
45619;DHT22;31343;47.520;19.144;2022-09-13T05:18:11;13.80;99.90
45619;DHT22;31343;47.520;19.144;2022-09-13T05:20:37;14.50;99.90
45619;DHT22;31343;47.520;19.144;2022-09-13T05:23:02;15.10;99.90
45619;DHT22;31343;47.520;19.144;2022-09-13T05:25:28;15.60;99.90
45619;DHT22;31343;47.520;19.144;2022-09-13T05:27:54;16.00;99.90
45619;DHT22;31343;47.520;19.144;2022-09-13T05:30:19;16.70;99.90
45619;DHT22;31343;47.520;19.144;2022-09-13T05:32:45;16.90;99.80
45619;DHT22;31343;47.520;19.144;2022-09-13T05:35:10;17.40;99.30
45619;DHT22;31343;47.520;19.144;2022-09-13T05:37:36;17.80;98.50
45619;DHT22;31343;47.520;19.144;2022-09-13T05:40:02;18.20;98.00
45619;DHT22;31343;47.520;19.144;2022-09-13T05:42:27;18.60;97.50
45619;DHT22;31343;47.520;19.144;2022-09-13T05:44:53;18.80;96.90
45619;DHT22;31343;47.520;19.144;2022-09-13T05:47:18;19.20;96.70
45619;DHT22;31343;47.520;19.144;2022-09-13T05:49:44;19.60;96.10
45619;DHT22;31343;47.520;19.144;2022-09-13T05:52:09;20.30;95.50
45619;DHT22;31343;47.520;19.144;2022-09-13T05:54:35;20.90;94.10
45619;DHT22;31343;47.520;19.144;2022-09-13T05:57:02;21.80;93.20
45619;DHT22;31343;47.520;19.144;2022-09-13T05:59:28;22.40;92.20
45619;DHT22;31343;47.520;19.144;2022-09-13T06:01:53;23.10;90.80
45619;DHT22;31343;47.520;19.144;2022-09-13T06:04:19;23.90;90.00
45619;DHT22;31343;47.520;19.144;2022-09-13T06:06:45;24.30;88.00
45619;DHT22;31343;47.520;19.144;2022-09-13T06:09:11;24.40;86.40
45619;DHT22;31343;47.520;19.144;2022-09-13T06:11:37;25.00;85.00
45619;DHT22;31343;47.520;19.144;2022-09-13T06:14:03;24.50;83.80
45619;DHT22;31343;47.520;19.144;2022-09-13T06:16:29;24.90;84.70
45619;DHT22;31343;47.520;19.144;2022-09-13T06:18:54;25.30;83.80
45619;DHT22;31343;47.520;19.144;2022-09-13T06:21:20;25.40;83.50
45619;DHT22;31343;47.520;19.144;2022-09-13T06:23:47;25.80;81.70
45619;DHT22;31343;47.520;19.144;2022-09-13T06:26:13;26.00;80.50
45619;DHT22;31343;47.520;19.144;2022-09-13T06:28:39;26.10;79.50
45619;DHT22;31343;47.520;19.144;2022-09-13T06:31:06;26.90;78.50
45619;DHT22;31343;47.520;19.144;2022-09-13T06:33:33;27.70;76.50
45619;DHT22;31343;47.520;19.144;2022-09-13T06:36:00;27.70;75.60
45619;DHT22;31343;47.520;19.144;2022-09-13T06:38:26;28.40;74.60
45619;DHT22;31343;47.520;19.144;2022-09-13T06:41:13;27.60;73.80
45619;DHT22;31343;47.520;19.144;2022-09-13T06:43:38;28.00;73.70
45619;DHT22;31343;47.520;19.144;2022-09-13T06:46:06;28.10;72.20
45619;DHT22;31343;47.520;19.144;2022-09-13T06:48:32;28.00;72.00
45619;DHT22;31343;47.520;19.144;2022-09-13T06:50:59;29.10;70.60
45619;DHT22;31343;47.520;19.144;2022-09-13T06:53:25;29.10;70.20
45619;DHT22;31343;47.520;19.144;2022-09-13T06:58:31;29.40;68.30
45619;DHT22;31343;47.520;19.144;2022-09-13T07:04:02;29.30;67.00
45619;DHT22;31343;47.520;19.144;2022-09-13T07:06:29;29.50;67.30
45619;DHT22;31343;47.520;19.144;2022-09-13T07:08:55;29.70;67.00
45619;DHT22;31343;47.520;19.144;2022-09-13T07:11:22;28.70;67.30
45619;DHT22;31343;47.520;19.144;2022-09-13T07:13:48;28.70;66.40
45619;DHT22;31343;47.520;19.144;2022-09-13T07:16:14;28.20;66.80
45619;DHT22;31343;47.520;19.144;2022-09-13T07:18:40;28.90;68.10
45619;DHT22;31343;47.520;19.144;2022-09-13T07:21:07;28.50;67.10
45619;DHT22;31343;47.520;19.144;2022-09-13T07:23:33;27.30;68.90
45619;DHT22;31343;47.520;19.144;2022-09-13T07:25:59;27.10;68.40
45619;DHT22;31343;47.520;19.144;2022-09-13T07:28:34;26.20;70.80
45619;DHT22;31343;47.520;19.144;2022-09-13T07:31:19;25.80;71.10
45619;DHT22;31343;47.520;19.144;2022-09-13T07:33:45;26.30;70.00
45619;DHT22;31343;47.520;19.144;2022-09-13T07:36:11;26.70;69.30
45619;DHT22;31343;47.520;19.144;2022-09-13T07:38:37;26.30;70.00
45619;DHT22;31343;47.520;19.144;2022-09-13T07:41:04;25.20;69.60
45619;DHT22;31343;47.520;19.144;2022-09-13T07:43:31;24.90;70.40
45619;DHT22;31343;47.520;19.144;2022-09-13T07:45:59;24.20;71.90
45619;DHT22;31343;47.520;19.144;2022-09-13T07:48:25;23.30;72.80
45619;DHT22;31343;47.520;19.144;2022-09-13T07:51:01;23.90;73.70
45619;DHT22;31343;47.520;19.144;2022-09-13T07:53:27;25.40;70.60
45619;DHT22;31343;47.520;19.144;2022-09-13T07:55:53;25.30;70.00
45619;DHT22;31343;47.520;19.144;2022-09-13T07:58:19;25.00;70.50
45619;DHT22;31343;47.520;19.144;2022-09-13T08:00:44;24.80;69.80
45619;DHT22;31343;47.520;19.144;2022-09-13T08:03:10;24.40;70.80
45619;DHT22;31343;47.520;19.144;2022-09-13T08:05:39;23.90;71.20
45619;DHT22;31343;47.520;19.144;2022-09-13T08:08:05;24.00;70.20
45619;DHT22;31343;47.520;19.144;2022-09-13T08:10:32;23.10;72.10
45619;DHT22;31343;47.520;19.144;2022-09-13T08:12:57;22.50;74.30
45619;DHT22;31343;47.520;19.144;2022-09-13T08:15:23;21.60;76.00
45619;DHT22;31343;47.520;19.144;2022-09-13T08:17:49;21.50;76.70
45619;DHT22;31343;47.520;19.144;2022-09-13T08:20:14;20.90;77.80
45619;DHT22;31343;47.520;19.144;2022-09-13T08:22:40;20.70;78.80
45619;DHT22;31343;47.520;19.144;2022-09-13T08:25:06;20.50;79.50
45619;DHT22;31343;47.520;19.144;2022-09-13T08:27:31;20.20;80.20
45619;DHT22;31343;47.520;19.144;2022-09-13T08:29:57;20.00;80.40
45619;DHT22;31343;47.520;19.144;2022-09-13T08:32:23;19.70;80.90
45619;DHT22;31343;47.520;19.144;2022-09-13T08:34:48;19.60;80.20
45619;DHT22;31343;47.520;19.144;2022-09-13T08:37:14;19.40;80.90
45619;DHT22;31343;47.520;19.144;2022-09-13T08:39:39;19.50;81.30
45619;DHT22;31343;47.520;19.144;2022-09-13T08:44:51;19.70;81.60
45619;DHT22;31343;47.520;19.144;2022-09-13T08:49:45;19.60;82.50
45619;DHT22;31343;47.520;19.144;2022-09-13T08:52:15;19.80;83.10
45619;DHT22;31343;47.520;19.144;2022-09-13T08:54:44;20.00;83.40
45619;DHT22;31343;47.520;19.144;2022-09-13T09:02:43;20.20;81.90
45619;DHT22;31343;47.520;19.144;2022-09-13T09:05:19;20.20;81.50
45619;DHT22;31343;47.520;19.144;2022-09-13T09:07:53;20.10;82.60
45619;DHT22;31343;47.520;19.144;2022-09-13T09:10:26;20.00;82.90
45619;DHT22;31343;47.520;19.144;2022-09-13T09:12:54;20.10;84.60
45619;DHT22;31343;47.520;19.144;2022-09-13T09:15:25;20.30;83.90
45619;DHT22;31343;47.520;19.144;2022-09-13T09:17:55;20.40;83.50
45619;DHT22;31343;47.520;19.144;2022-09-13T09:20:26;20.40;83.00
45619;DHT22;31343;47.520;19.144;2022-09-13T09:22:53;20.70;82.60
45619;DHT22;31343;47.520;19.144;2022-09-13T09:25:20;20.60;82.40
45619;DHT22;31343;47.520;19.144;2022-09-13T09:27:47;20.50;81.80
45619;DHT22;31343;47.520;19.144;2022-09-13T09:30:12;20.30;82.00
45619;DHT22;31343;47.520;19.144;2022-09-13T09:37:40;20.20;80.30
45619;DHT22;31343;47.520;19.144;2022-09-13T09:40:08;20.30;79.80
45619;DHT22;31343;47.520;19.144;2022-09-13T09:42:43;20.50;81.10
45619;DHT22;31343;47.520;19.144;2022-09-13T09:47:44;21.10;79.50
45619;DHT22;31343;47.520;19.144;2022-09-13T09:50:15;21.20;80.00
45619;DHT22;31343;47.520;19.144;2022-09-13T09:52:48;20.90;79.80
45619;DHT22;31343;47.520;19.144;2022-09-13T09:55:39;20.80;81.20
45619;DHT22;31343;47.520;19.144;2022-09-13T09:58:05;20.90;79.80
45619;DHT22;31343;47.520;19.144;2022-09-13T10:00:33;21.20;81.50
45619;DHT22;31343;47.520;19.144;2022-09-13T10:03:04;21.30;80.50
45619;DHT22;31343;47.520;19.144;2022-09-13T10:05:30;21.20;80.80
45619;DHT22;31343;47.520;19.144;2022-09-13T10:08:03;21.10;83.40
45619;DHT22;31343;47.520;19.144;2022-09-13T10:10:39;21.20;82.30
45619;DHT22;31343;47.520;19.144;2022-09-13T10:13:11;21.40;82.00
45619;DHT22;31343;47.520;19.144;2022-09-13T10:15:37;21.70;80.90
45619;DHT22;31343;47.520;19.144;2022-09-13T10:18:16;21.60;81.10
45619;DHT22;31343;47.520;19.144;2022-09-13T10:20:42;21.70;80.90
45619;DHT22;31343;47.520;19.144;2022-09-13T10:23:23;21.70;81.80
45619;DHT22;31343;47.520;19.144;2022-09-13T10:26:08;21.80;80.80
45619;DHT22;31343;47.520;19.144;2022-09-13T10:28:35;22.10;81.00
45619;DHT22;31343;47.520;19.144;2022-09-13T10:31:06;22.10;79.40
45619;DHT22;31343;47.520;19.144;2022-09-13T10:33:43;22.00;79.70
45619;DHT22;31343;47.520;19.144;2022-09-13T10:36:21;21.80;79.10
45619;DHT22;31343;47.520;19.144;2022-09-13T10:38:55;21.90;77.50
45619;DHT22;31343;47.520;19.144;2022-09-13T10:41:23;21.80;78.10
45619;DHT22;31343;47.520;19.144;2022-09-13T10:43:55;21.50;78.40
45619;DHT22;31343;47.520;19.144;2022-09-13T10:46:21;21.70;79.80
45619;DHT22;31343;47.520;19.144;2022-09-13T10:48:47;21.70;79.30
45619;DHT22;31343;47.520;19.144;2022-09-13T10:54:08;21.80;79.60
45619;DHT22;31343;47.520;19.144;2022-09-13T10:56:34;22.10;78.60
45619;DHT22;31343;47.520;19.144;2022-09-13T10:59:13;22.10;78.20
45619;DHT22;31343;47.520;19.144;2022-09-13T11:07:16;22.60;77.90
45619;DHT22;31343;47.520;19.144;2022-09-13T11:09:59;22.80;76.10
45619;DHT22;31343;47.520;19.144;2022-09-13T11:17:37;23.80;74.00
45619;DHT22;31343;47.520;19.144;2022-09-13T11:20:20;23.70;73.50
45619;DHT22;31343;47.520;19.144;2022-09-13T11:31:25;25.80;70.00
45619;DHT22;31343;47.520;19.144;2022-09-13T11:39:14;25.80;71.20
45619;DHT22;31343;47.520;19.144;2022-09-13T11:44:31;26.80;70.60
45619;DHT22;31343;47.520;19.144;2022-09-13T11:47:10;27.30;68.50
45619;DHT22;31343;47.520;19.144;2022-09-13T11:49:57;26.90;69.40
45619;DHT22;31343;47.520;19.144;2022-09-13T11:54:58;26.40;68.80
45619;DHT22;31343;47.520;19.144;2022-09-13T11:57:34;26.40;69.20
45619;DHT22;31343;47.520;19.144;2022-09-13T12:00:03;26.80;69.10
45619;DHT22;31343;47.520;19.144;2022-09-13T12:05:02;27.30;67.10
45619;DHT22;31343;47.520;19.144;2022-09-13T12:07:35;26.40;69.30
45619;DHT22;31343;47.520;19.144;2022-09-13T12:10:12;25.60;69.40
45619;DHT22;31343;47.520;19.144;2022-09-13T12:12:39;25.40;70.30
45619;DHT22;31343;47.520;19.144;2022-09-13T12:15:06;25.40;69.30
45619;DHT22;31343;47.520;19.144;2022-09-13T12:17:41;25.20;70.20
45619;DHT22;31343;47.520;19.144;2022-09-13T12:20:24;25.30;71.40
45619;DHT22;31343;47.520;19.144;2022-09-13T12:22:53;25.30;70.80
45619;DHT22;31343;47.520;19.144;2022-09-13T12:25:30;25.00;70.80
45619;DHT22;31343;47.520;19.144;2022-09-13T12:28:05;25.30;71.70
45619;DHT22;31343;47.520;19.144;2022-09-13T12:30:38;25.80;69.70
45619;DHT22;31343;47.520;19.144;2022-09-13T12:33:07;26.00;71.70
45619;DHT22;31343;47.520;19.144;2022-09-13T12:58:39;24.90;71.80
45619;DHT22;31343;47.520;19.144;2022-09-13T13:03:32;26.30;69.10
45619;DHT22;31343;47.520;19.144;2022-09-13T13:08:35;26.10;68.50
45619;DHT22;31343;47.520;19.144;2022-09-13T13:15:57;26.90;68.40
45619;DHT22;31343;47.520;19.144;2022-09-13T13:18:28;27.10;68.20
45619;DHT22;31343;47.520;19.144;2022-09-13T13:31:04;26.50;69.20
45619;DHT22;31343;47.520;19.144;2022-09-13T13:33:41;26.50;69.90
45619;DHT22;31343;47.520;19.144;2022-09-13T13:36:31;26.20;69.80
45619;DHT22;31343;47.520;19.144;2022-09-13T13:38:58;26.00;69.40
45619;DHT22;31343;47.520;19.144;2022-09-13T13:43:57;25.30;71.70
45619;DHT22;31343;47.520;19.144;2022-09-13T13:46:27;25.10;71.90
45619;DHT22;31343;47.520;19.144;2022-09-13T13:48:53;25.10;71.80
45619;DHT22;31343;47.520;19.144;2022-09-13T13:51:19;25.10;72.40
45619;DHT22;31343;47.520;19.144;2022-09-13T13:53:59;24.90;71.80
45619;DHT22;31343;47.520;19.144;2022-09-13T13:56:31;24.60;73.50
45619;DHT22;31343;47.520;19.144;2022-09-13T13:59:06;24.30;74.10
45619;DHT22;31343;47.520;19.144;2022-09-13T14:01:33;24.20;73.90
45619;DHT22;31343;47.520;19.144;2022-09-13T14:09:02;24.20;74.50
45619;DHT22;31343;47.520;19.144;2022-09-13T14:21:39;24.00;75.40
45619;DHT22;31343;47.520;19.144;2022-09-13T14:24:19;24.20;76.00
45619;DHT22;31343;47.520;19.144;2022-09-13T14:26:48;24.40;75.40
45619;DHT22;31343;47.520;19.144;2022-09-13T14:29:18;24.40;74.30
45619;DHT22;31343;47.520;19.144;2022-09-13T14:31:44;24.30;74.90
45619;DHT22;31343;47.520;19.144;2022-09-13T14:37:02;24.30;74.90
45619;DHT22;31343;47.520;19.144;2022-09-13T14:39:28;24.30;74.70
45619;DHT22;31343;47.520;19.144;2022-09-13T14:41:59;24.30;75.50
45619;DHT22;31343;47.520;19.144;2022-09-13T14:44:25;24.30;75.80
45619;DHT22;31343;47.520;19.144;2022-09-13T14:46:54;24.30;75.90
45619;DHT22;31343;47.520;19.144;2022-09-13T14:49:25;24.00;75.10
45619;DHT22;31343;47.520;19.144;2022-09-13T14:52:01;23.90;75.90
45619;DHT22;31343;47.520;19.144;2022-09-13T14:54:38;23.90;75.00
45619;DHT22;31343;47.520;19.144;2022-09-13T14:57:06;23.90;75.30
45619;DHT22;31343;47.520;19.144;2022-09-13T14:59:51;24.00;76.20
45619;DHT22;31343;47.520;19.144;2022-09-13T15:02:21;23.90;75.50
45619;DHT22;31343;47.520;19.144;2022-09-13T15:04:49;23.90;75.70
45619;DHT22;31343;47.520;19.144;2022-09-13T15:09:44;23.90;76.10
45619;DHT22;31343;47.520;19.144;2022-09-13T15:12:31;23.90;76.30
45619;DHT22;31343;47.520;19.144;2022-09-13T15:20:30;23.60;76.70
45619;DHT22;31343;47.520;19.144;2022-09-13T15:23:15;23.60;77.00
45619;DHT22;31343;47.520;19.144;2022-09-13T15:25:40;23.60;77.00
45619;DHT22;31343;47.520;19.144;2022-09-13T15:28:15;23.60;76.60
45619;DHT22;31343;47.520;19.144;2022-09-13T15:30:42;23.50;76.70
45619;DHT22;31343;47.520;19.144;2022-09-13T15:35:41;23.20;77.10
45619;DHT22;31343;47.520;19.144;2022-09-13T15:40:57;22.80;77.80
45619;DHT22;31343;47.520;19.144;2022-09-13T15:43:23;22.70;77.90
45619;DHT22;31343;47.520;19.144;2022-09-13T15:45:49;22.70;78.60
45619;DHT22;31343;47.520;19.144;2022-09-13T15:48:23;22.60;78.10
45619;DHT22;31343;47.520;19.144;2022-09-13T15:51:05;22.60;78.60
45619;DHT22;31343;47.520;19.144;2022-09-13T15:53:32;22.60;79.00
45619;DHT22;31343;47.520;19.144;2022-09-13T15:55:58;22.60;78.60
45619;DHT22;31343;47.520;19.144;2022-09-13T15:58:25;22.60;78.70
45619;DHT22;31343;47.520;19.144;2022-09-13T16:00:50;22.70;79.00
45619;DHT22;31343;47.520;19.144;2022-09-13T16:03:16;22.60;79.00
45619;DHT22;31343;47.520;19.144;2022-09-13T16:05:41;22.60;79.10
45619;DHT22;31343;47.520;19.144;2022-09-13T16:08:08;22.60;78.80
45619;DHT22;31343;47.520;19.144;2022-09-13T16:10:35;22.60;79.10
45619;DHT22;31343;47.520;19.144;2022-09-13T16:13:01;22.50;79.30
45619;DHT22;31343;47.520;19.144;2022-09-13T16:15:26;22.40;78.90
45619;DHT22;31343;47.520;19.144;2022-09-13T16:17:52;22.40;78.80
45619;DHT22;31343;47.520;19.144;2022-09-13T16:20:18;22.30;79.00
45619;DHT22;31343;47.520;19.144;2022-09-13T16:22:44;22.40;79.20
45619;DHT22;31343;47.520;19.144;2022-09-13T16:25:11;22.40;79.20
45619;DHT22;31343;47.520;19.144;2022-09-13T16:27:37;22.40;79.20
45619;DHT22;31343;47.520;19.144;2022-09-13T16:30:03;22.40;79.60
45619;DHT22;31343;47.520;19.144;2022-09-13T16:32:29;22.40;79.80
45619;DHT22;31343;47.520;19.144;2022-09-13T16:34:55;22.30;79.80
45619;DHT22;31343;47.520;19.144;2022-09-13T16:37:21;22.30;79.60
45619;DHT22;31343;47.520;19.144;2022-09-13T16:39:47;22.30;79.90
45619;DHT22;31343;47.520;19.144;2022-09-13T16:42:13;22.30;80.40
45619;DHT22;31343;47.520;19.144;2022-09-13T16:44:39;22.20;80.20
45619;DHT22;31343;47.520;19.144;2022-09-13T16:47:05;22.20;80.70
45619;DHT22;31343;47.520;19.144;2022-09-13T16:49:31;22.10;80.80
45619;DHT22;31343;47.520;19.144;2022-09-13T16:51:56;22.10;81.20
45619;DHT22;31343;47.520;19.144;2022-09-13T16:54:26;22.00;82.20
45619;DHT22;31343;47.520;19.144;2022-09-13T16:56:53;22.00;81.90
45619;DHT22;31343;47.520;19.144;2022-09-13T16:59:18;21.90;83.10
45619;DHT22;31343;47.520;19.144;2022-09-13T17:01:44;21.80;83.40
45619;DHT22;31343;47.520;19.144;2022-09-13T17:04:09;21.80;83.80
45619;DHT22;31343;47.520;19.144;2022-09-13T17:06:35;21.70;84.40
45619;DHT22;31343;47.520;19.144;2022-09-13T17:09:04;21.70;83.90
45619;DHT22;31343;47.520;19.144;2022-09-13T17:11:33;21.60;84.60
45619;DHT22;31343;47.520;19.144;2022-09-13T17:13:59;21.40;85.80
45619;DHT22;31343;47.520;19.144;2022-09-13T17:16:27;21.30;85.10
45619;DHT22;31343;47.520;19.144;2022-09-13T17:18:56;21.20;85.60
45619;DHT22;31343;47.520;19.144;2022-09-13T17:21:22;21.10;86.90
45619;DHT22;31343;47.520;19.144;2022-09-13T17:23:48;21.10;87.50
45619;DHT22;31343;47.520;19.144;2022-09-13T17:26:15;20.90;87.80
45619;DHT22;31343;47.520;19.144;2022-09-13T17:28:40;20.90;88.40
45619;DHT22;31343;47.520;19.144;2022-09-13T17:31:06;20.90;89.60
45619;DHT22;31343;47.520;19.144;2022-09-13T17:33:31;20.80;89.90
45619;DHT22;31343;47.520;19.144;2022-09-13T17:35:58;20.60;90.40
45619;DHT22;31343;47.520;19.144;2022-09-13T17:38:25;20.50;90.70
45619;DHT22;31343;47.520;19.144;2022-09-13T17:41:04;20.40;91.00
45619;DHT22;31343;47.520;19.144;2022-09-13T17:43:30;20.30;91.10
45619;DHT22;31343;47.520;19.144;2022-09-13T17:45:56;20.30;91.40
45619;DHT22;31343;47.520;19.144;2022-09-13T17:48:22;20.20;91.70
45619;DHT22;31343;47.520;19.144;2022-09-13T17:50:47;20.10;92.00
45619;DHT22;31343;47.520;19.144;2022-09-13T17:53:15;20.10;92.10
45619;DHT22;31343;47.520;19.144;2022-09-13T17:55:47;20.00;92.40
45619;DHT22;31343;47.520;19.144;2022-09-13T17:58:13;19.90;92.90
45619;DHT22;31343;47.520;19.144;2022-09-13T18:00:38;19.80;93.20
45619;DHT22;31343;47.520;19.144;2022-09-13T18:03:06;19.80;93.60
45619;DHT22;31343;47.520;19.144;2022-09-13T18:05:32;19.80;93.20
45619;DHT22;31343;47.520;19.144;2022-09-13T18:07:59;19.60;92.90
45619;DHT22;31343;47.520;19.144;2022-09-13T18:10:24;19.60;93.10
45619;DHT22;31343;47.520;19.144;2022-09-13T18:12:50;19.60;93.60
45619;DHT22;31343;47.520;19.144;2022-09-13T18:15:15;19.60;93.70
45619;DHT22;31343;47.520;19.144;2022-09-13T18:17:41;19.60;93.60
45619;DHT22;31343;47.520;19.144;2022-09-13T18:20:07;19.50;93.80
45619;DHT22;31343;47.520;19.144;2022-09-13T18:22:32;19.50;93.80
45619;DHT22;31343;47.520;19.144;2022-09-13T18:24:58;19.50;94.30
45619;DHT22;31343;47.520;19.144;2022-09-13T18:27:23;19.50;94.70
45619;DHT22;31343;47.520;19.144;2022-09-13T18:29:49;19.40;94.70
45619;DHT22;31343;47.520;19.144;2022-09-13T18:32:14;19.40;94.80